Villa Grove, CO

5:43 AM MDT on October 23, 2014 (GMT -0600)
Monarch Pass | Change Station
CLOSE
Current Station
Airport
Location: Monarch Pass,
Elevation: 12031 ft
Nearby Weather Stations

Elev 12031 ft 38.48 °N, 106.32 °W | Updated 6 minutes ago

Partly Cloudy
Partly Cloudy
28 °F
Feels Like 13 °F
N
29
Wind Variable Wind from West

Today
High -- | Low -- °F
--% Chance of Precip.
Yesterday
High -- | Low -- °F
Precip. -- in
7:21 AM 6:15 PM
Waning Crescent, 0% visible
Pressure 30.53 in
Visibility 0.8 miles
Clouds Mostly Cloudy 100 ft
Windchill 13 °F
Dew Point 28 °F
Humidity 100%
Rainfall 0.00 in
Snow Depth 0 in
UV 0 out of 12
Pollen 2.10 out of 12
Air Quality Not available.
Flu Activity Sporadic
METAR KMYP 231137Z AUTO 26025KT 3/4SM BR BKN001 M02/M02 A3053 RMK AO2 VIS 1/4V4

More Conditions Fewer Conditions

Pressure 30.53 in
Visibility 0.8 miles
Clouds Mostly Cloudy 100 ft
Windchill 13 °F
Dew Point 28 °F
Humidity 100%
Rainfall 0.00 in
Snow Depth 0 in
UV 0 out of 12
Pollen 2.10 out of 12
Air Quality Not available.
Flu Activity Sporadic
METAR KMYP 231137Z AUTO 26025KT 3/4SM BR BKN001 M02/M02 A3053 RMK AO2 VIS 1/4V4

More Conditions Fewer Conditions

10-Day Weather Forecast

Almanac

Astronomy

Oct. 23, 2014 Rise Set
Actual Time 7:21 AM MDT 6:15 PM MDT
Civil Twilight 6:54 AM MDT 6:42 PM MDT
Nautical Twilight 6:23 AM MDT 7:13 PM MDT
Astronomical Twilight 5:53 AM MDT 7:44 PM MDT
Moon 7:04 AM MDT 6:19 PM MDT
Length of Visible Light 11h 48m
Length of Day
10h 54m
Tomorrow will be 2m 17s shorter.
Waning Crescent, 0% of the Moon is Illuminated
Today
Waning Crescent
Oct 23
New
Oct 30
First Quarter
Nov 6
Full
Nov 14
Last Quarter

Today's Extremes

State Highs State Lows

Community

WunderPhotos

Upload Photos

1,764,209 photos uploaded!

Nearby

Snow Depth

Station Depth Elevation
Porphyry Creek 0 in 10760 ft
Cochetopa Pass 0 in 10020 ft
South Colony 0 in 10800 ft
Park Cone 0 in 9600 ft
Medano Pass 1 in 9620 ft

Earthquake Activity

City Distance Mag. Time & Date
Trinidad, Colorado 107 miles 2.7 10:33 PM MDT
2014-10-20
Minimum magnitude displayed is 2.5.

Coastal Water Temperatures

Place Temperature
No Stations Reporting

Nearby Weather Stations